Capt. John Reynolds — WDD6151 — position and weather

sailwx.info

Track history (hours):
 
Tides and Currents Weather Stations Pressure Air Temp Water Temp Dewpoint Dewpoint Depression Visibility Wind Speed Wind Dir Waves Ship Positions

Capt. John Reynolds

More information available from US FCC via Universal Licensing System and Coast Guard Vessel Documentation Center.

Last reported at 2014-Sep-16 13:33 UTC. Time now 2014-Sep-16 21:35 UTC.
Position N 30°03' W 090°34'.

Length 47 m; draft 3.3 m.

Type: Towing. MMSI: 367168950.

Date/timePositionNaut miles runAvg speedWind from/ knotsBaromVisibWave heightAir tempDewpointWater temp
2014-Sep-16 13:33N 30°03' W 090°34'5 5.1
2014-Sep-16 12:31N 30°03' W 090°40'6 5.7
2014-Sep-16 11:33N 30°01' W 090°46'2 1.3
2014-Sep-16 10:23N 30°00' W 090°48'0 0.0
2014-Sep-16 09:29N 30°00' W 090°48'0 0.0
2014-Sep-16 07:23N 30°00' W 090°48'0 0.0
2014-Sep-15 07:15N 30°00' W 090°48'2 1.1
2014-Sep-15 05:33N 29°59' W 090°49'4 3.4
2014-Sep-15 04:25N 30°01' W 090°45'4 4.0
2014-Sep-15 03:30N 30°02' W 090°41'3 3.5
2014-Sep-15 02:33N 30°02' W 090°37'4 4.1
2014-Sep-15 01:33N 30°03' W 090°33'1 1.1
2014-Sep-15 00:30N 30°03' W 090°31'0 0.0
2014-Sep-14 23:33N 30°03' W 090°31'0 0.0
2014-Sep-14 22:33N 30°03' W 090°31'1 1.2
2014-Sep-14 21:33N 30°03' W 090°30'2 2.2
2014-Sep-14 20:33N 30°02' W 090°28'2 1.8
2014-Sep-14 19:33N 29°60' W 090°28'4 3.5
2014-Sep-14 18:20N 29°57' W 090°24'  
2014-Sep-10 23:12N 29°57' W 090°19'10 1.0
2014-Sep-10 13:23N 30°01' W 090°28'3 4.1
2014-Sep-10 12:33N 30°03' W 090°32'4 3.9
2014-Sep-10 11:31N 30°02' W 090°36'0 0.3
2014-Sep-10 10:33N 30°02' W 090°37'5 4.7
2014-Sep-10 09:33N 30°01' W 090°42'5 5.2
2014-Sep-10 08:33N 30°00' W 090°48'0 0.0
2014-Sep-10 07:33N 30°00' W 090°48'0 0.0
2014-Sep-10 06:33N 30°00' W 090°48'0 0.0
2014-Sep-10 05:33N 30°00' W 090°48'0 0.0
2014-Sep-10 04:33N 30°00' W 090°48'0 0.2
2014-Sep-10 02:08N 30°00' W 090°48'2 1.2
2014-Sep-10 00:32N 29°59' W 090°49'10 2.0
2014-Sep-09 19:23N 30°02' W 090°38'4 4.3
2014-Sep-09 18:33N 30°03' W 090°34'3 2.4
2014-Sep-09 17:29N 30°03' W 090°31'0 0.0
2014-Sep-09 16:32N 30°03' W 090°31'0 0.0
2014-Sep-09 15:23N 30°03' W 090°31'0 0.0
2014-Sep-09 14:32N 30°03' W 090°31'0 0.0
2014-Sep-09 13:32N 30°03' W 090°31'0 0.0
2014-Sep-09 12:32N 30°03' W 090°31'3 3.3
2014-Sep-09 11:33N 30°00' W 090°28'4 4.5
2014-Sep-09 10:33N 29°58' W 090°24'4 4.3
2014-Sep-09 09:33N 29°56' W 090°20'2 0.1
2014-Sep-08 03:08N 29°57' W 090°18'4 1.0
2014-Sep-07 23:08N 29°56' W 090°22'2 4.0
2014-Sep-07 22:31N 29°59' W 090°24'0 0.1
2014-Sep-07 21:25N 29°59' W 090°24'0 0.0
2014-Sep-07 20:31N 29°59' W 090°24'1 1.3
2014-Sep-07 19:33N 29°59' W 090°25'4 4.5
2014-Sep-07 18:33N 30°02' W 090°28'5 5.3
2014-Sep-07 17:33N 30°03' W 090°35'5 4.8
2014-Sep-07 16:33N 30°03' W 090°40'5 5.2
2014-Sep-07 15:32N 30°01' W 090°46'3 0.8
2014-Sep-07 12:06N 29°60' W 090°48'0 0.0
2014-Sep-07 11:30N 29°60' W 090°48'0 0.0
2014-Sep-07 10:30N 29°60' W 090°48'0 0.0
2014-Sep-07 09:30N 29°60' W 090°48'0 0.0
2014-Sep-07 08:30N 29°60' W 090°48'0 0.0
2014-Sep-07 05:12N 29°60' W 090°48'0 0.0
2014-Sep-07 04:18N 29°60' W 090°48'0 0.0
2014-Sep-07 01:18N 29°60' W 090°48'0 0.1
2014-Sep-07 00:24N 29°60' W 090°48'  
Track history (hours):
 
Tides and Currents Weather Stations Pressure Air Temp Water Temp Dewpoint Dewpoint Depression Visibility Wind Speed Wind Dir Waves Ship Positions

Capt. John Reynolds

More information available from US FCC via Universal Licensing System and Coast Guard Vessel Documentation Center.

Last reported at 2014-Sep-16 13:33 UTC. Time now 2014-Sep-16 21:35 UTC.
Position N 30°03' W 090°34'.

Length 47 m; draft 3.3 m.

Type: Towing. MMSI: 367168950.

Date/timePositionNaut miles runAvg speedWind from/ knotsBaromVisibWave heightAir tempDewpointWater temp
2014-Sep-16 13:33N 30°03' W 090°34'5 5.1
2014-Sep-16 12:31N 30°03' W 090°40'6 5.7
2014-Sep-16 11:33N 30°01' W 090°46'2 1.3
2014-Sep-16 10:23N 30°00' W 090°48'0 0.0
2014-Sep-16 09:29N 30°00' W 090°48'0 0.0
2014-Sep-16 07:23N 30°00' W 090°48'0 0.0
2014-Sep-15 07:15N 30°00' W 090°48'2 1.1
2014-Sep-15 05:33N 29°59' W 090°49'4 3.4
2014-Sep-15 04:25N 30°01' W 090°45'4 4.0
2014-Sep-15 03:30N 30°02' W 090°41'3 3.5
2014-Sep-15 02:33N 30°02' W 090°37'4 4.1
2014-Sep-15 01:33N 30°03' W 090°33'1 1.1
2014-Sep-15 00:30N 30°03' W 090°31'0 0.0
2014-Sep-14 23:33N 30°03' W 090°31'0 0.0
2014-Sep-14 22:33N 30°03' W 090°31'1 1.2
2014-Sep-14 21:33N 30°03' W 090°30'2 2.2
2014-Sep-14 20:33N 30°02' W 090°28'2 1.8
2014-Sep-14 19:33N 29°60' W 090°28'4 3.5
2014-Sep-14 18:20N 29°57' W 090°24'  
2014-Sep-10 23:12N 29°57' W 090°19'10 1.0
2014-Sep-10 13:23N 30°01' W 090°28'3 4.1
2014-Sep-10 12:33N 30°03' W 090°32'4 3.9
2014-Sep-10 11:31N 30°02' W 090°36'0 0.3
2014-Sep-10 10:33N 30°02' W 090°37'5 4.7
2014-Sep-10 09:33N 30°01' W 090°42'5 5.2
2014-Sep-10 08:33N 30°00' W 090°48'0 0.0
2014-Sep-10 07:33N 30°00' W 090°48'0 0.0
2014-Sep-10 06:33N 30°00' W 090°48'0 0.0
2014-Sep-10 05:33N 30°00' W 090°48'0 0.0
2014-Sep-10 04:33N 30°00' W 090°48'0 0.2
2014-Sep-10 02:08N 30°00' W 090°48'2 1.2
2014-Sep-10 00:32N 29°59' W 090°49'10 2.0
2014-Sep-09 19:23N 30°02' W 090°38'4 4.3
2014-Sep-09 18:33N 30°03' W 090°34'3 2.4
2014-Sep-09 17:29N 30°03' W 090°31'0 0.0
2014-Sep-09 16:32N 30°03' W 090°31'0 0.0
2014-Sep-09 15:23N 30°03' W 090°31'0 0.0
2014-Sep-09 14:32N 30°03' W 090°31'0 0.0
2014-Sep-09 13:32N 30°03' W 090°31'0 0.0
2014-Sep-09 12:32N 30°03' W 090°31'3 3.3
2014-Sep-09 11:33N 30°00' W 090°28'4 4.5
2014-Sep-09 10:33N 29°58' W 090°24'4 4.3
2014-Sep-09 09:33N 29°56' W 090°20'2 0.1
2014-Sep-08 03:08N 29°57' W 090°18'4 1.0
2014-Sep-07 23:08N 29°56' W 090°22'2 4.0
2014-Sep-07 22:31N 29°59' W 090°24'0 0.1
2014-Sep-07 21:25N 29°59' W 090°24'0 0.0
2014-Sep-07 20:31N 29°59' W 090°24'1 1.3
2014-Sep-07 19:33N 29°59' W 090°25'4 4.5
2014-Sep-07 18:33N 30°02' W 090°28'5 5.3
2014-Sep-07 17:33N 30°03' W 090°35'5 4.8
2014-Sep-07 16:33N 30°03' W 090°40'5 5.2
2014-Sep-07 15:32N 30°01' W 090°46'3 0.8
2014-Sep-07 12:06N 29°60' W 090°48'0 0.0
2014-Sep-07 11:30N 29°60' W 090°48'0 0.0
2014-Sep-07 10:30N 29°60' W 090°48'0 0.0
2014-Sep-07 09:30N 29°60' W 090°48'0 0.0
2014-Sep-07 08:30N 29°60' W 090°48'0 0.0
2014-Sep-07 05:12N 29°60' W 090°48'0 0.0
2014-Sep-07 04:18N 29°60' W 090°48'0 0.0
2014-Sep-07 01:18N 29°60' W 090°48'0 0.1
2014-Sep-07 00:24N 29°60' W 090°48'  

Dump ship's entire track history